createdAt,value
2023-02-07T00:00:57.745Z,26.45
2023-02-07T00:04:01.714Z,25.30
2023-02-07T00:07:06.206Z,25.00
2023-02-07T00:10:10.563Z,30.42
2023-02-07T00:13:26.614Z,24.83
2023-02-07T00:16:30.164Z,19.65
2023-02-07T00:19:33.384Z,24.73
2023-02-07T00:22:37.978Z,27.17
2023-02-07T00:25:41.090Z,24.60
2023-02-07T00:28:44.343Z,27.50
2023-02-07T00:31:47.702Z,24.20
2023-02-07T00:34:51.559Z,25.88
2023-02-07T00:37:56.147Z,25.67
2023-02-07T00:41:01.445Z,27.02
2023-02-07T00:44:05.089Z,21.10
2023-02-07T00:47:08.777Z,24.23
2023-02-07T00:50:12.049Z,25.15
2023-02-07T00:53:16.586Z,27.90
2023-02-07T00:56:19.882Z,26.85
2023-02-07T00:59:23.030Z,26.77
2023-02-07T01:02:26.318Z,27.13
2023-02-07T01:05:29.508Z,26.90
2023-02-07T01:08:34.190Z,28.17
2023-02-07T01:11:37.463Z,27.58
2023-02-07T01:14:40.827Z,27.60
2023-02-07T01:17:44.133Z,31.33
2023-02-07T01:20:47.392Z,32.58
2023-02-07T01:23:56.477Z,30.25
2023-02-07T01:26:59.652Z,31.38
2023-02-07T01:30:04.256Z,28.98
2023-02-07T01:33:07.563Z,29.00
2023-02-07T01:36:13.438Z,34.97
2023-02-07T01:39:17.905Z,36.35
2023-02-07T01:42:21.046Z,33.88
2023-02-07T01:45:29.763Z,31.20
2023-02-07T01:48:36.404Z,34.42
2023-02-07T01:51:45.453Z,30.00
2023-02-07T01:54:54.433Z,30.73
2023-02-07T01:57:58.587Z,33.67
2023-02-07T02:01:05.361Z,31.17
2023-02-07T02:04:09.331Z,27.37
2023-02-07T02:07:15.125Z,31.00
2023-02-07T02:10:22.775Z,28.50
2023-02-07T02:13:34.735Z,34.42
2023-02-07T02:16:45.728Z,32.38
2023-02-07T02:20:18.606Z,28.95
2023-02-07T02:23:33.829Z,34.25
2023-02-07T02:26:55.304Z,35.50
2023-02-07T02:30:40.522Z,34.65
2023-02-07T02:33:52.600Z,30.88
2023-02-07T02:37:03.294Z,29.60
2023-02-07T02:40:10.508Z,30.63
2023-02-07T02:43:22.379Z,32.03
2023-02-07T02:46:30.024Z,34.35
2023-02-07T02:49:38.138Z,36.35
2023-02-07T02:52:50.640Z,35.45
2023-02-07T02:56:19.157Z,38.15
2023-02-07T02:59:47.807Z,35.33
2023-02-07T03:03:01.418Z,40.67
2023-02-07T03:06:20.789Z,40.40
2023-02-07T03:09:38.857Z,39.20
2023-02-07T03:15:59.617Z,38.42
2023-02-07T03:19:09.009Z,52.78
2023-02-07T03:22:15.969Z,52.45
2023-02-07T03:25:22.411Z,45.60
2023-02-07T03:28:28.920Z,42.25
2023-02-07T03:31:32.793Z,42.70
2023-02-07T03:34:43.174Z,40.13
2023-02-07T03:37:51.207Z,39.13
2023-02-07T03:40:59.308Z,46.13
2023-02-07T03:44:07.069Z,42.92
2023-02-07T03:50:14.075Z,39.05
2023-02-07T03:53:19.044Z,39.13
2023-02-07T03:56:22.262Z,37.20
2023-02-07T03:59:25.791Z,42.60
2023-02-07T04:02:29.062Z,45.30
2023-02-07T04:05:32.320Z,47.67
2023-02-07T04:08:39.433Z,36.28
2023-02-07T04:11:42.615Z,43.13
2023-02-07T04:14:45.790Z,43.70
2023-02-07T04:17:48.903Z,51.17
2023-02-07T04:20:52.336Z,44.97
2023-02-07T04:23:57.497Z,44.10
2023-02-07T04:27:01.204Z,49.88
2023-02-07T04:30:05.140Z,44.03
2023-02-07T04:34:25.719Z,47.58
2023-02-07T04:37:28.938Z,46.05
2023-02-07T04:40:32.149Z,44.67
2023-02-07T04:43:37.595Z,60.22
2023-02-07T04:46:40.823Z,57.67
2023-02-07T04:49:45.384Z,60.72
2023-02-07T04:52:48.610Z,67.25
2023-02-07T04:55:52.512Z,44.55
2023-02-07T04:58:56.216Z,52.05
2023-02-07T05:01:59.885Z,42.70
2023-02-07T05:05:04.400Z,45.50
2023-02-07T05:08:07.991Z,45.95
2023-02-07T05:11:11.211Z,45.50
2023-02-07T05:14:14.384Z,46.10
2023-02-07T05:17:17.619Z,51.88
2023-02-07T05:20:22.588Z,45.60
2023-02-07T05:23:25.859Z,47.10
2023-02-07T05:26:29.155Z,45.72
2023-02-07T05:29:32.437Z,49.35
2023-02-07T05:32:52.948Z,50.88
2023-02-07T05:35:57.988Z,47.92
2023-02-07T05:39:01.209Z,46.40
2023-02-07T05:42:04.496Z,47.97
2023-02-07T05:45:09.006Z,45.70
2023-02-07T05:48:12.320Z,56.78
2023-02-07T05:51:17.001Z,49.42
2023-02-07T05:54:20.110Z,50.65
2023-02-07T05:57:23.349Z,56.85
2023-02-07T06:00:26.679Z,49.90
2023-02-07T06:03:29.910Z,53.08
2023-02-07T06:06:35.746Z,57.03
2023-02-07T06:09:39.611Z,54.75
2023-02-07T06:12:43.747Z,52.50
2023-02-07T06:15:46.992Z,52.50
2023-02-07T06:18:50.647Z,53.63
2023-02-07T06:21:55.288Z,54.78
2023-02-07T06:24:58.452Z,55.88
2023-02-07T06:28:01.978Z,52.40
2023-02-07T06:31:05.653Z,53.80
2023-02-07T06:34:09.405Z,54.20
2023-02-07T06:37:14.072Z,55.08
2023-02-07T06:40:18.018Z,56.70
2023-02-07T06:43:21.194Z,54.08
2023-02-07T06:46:24.630Z,52.85
2023-02-07T06:49:27.754Z,54.67
2023-02-07T06:52:32.388Z,126.00
2023-02-07T06:55:39.448Z,147.30
2023-02-07T06:58:42.793Z,79.53
2023-02-07T07:01:47.744Z,61.40
2023-02-07T07:04:52.471Z,61.13
2023-02-07T07:07:57.091Z,59.40
2023-02-07T07:11:00.292Z,57.00
2023-02-07T07:14:03.450Z,71.50
2023-02-07T07:17:06.930Z,53.08
2023-02-07T07:20:11.752Z,51.70
2023-02-07T07:23:16.301Z,51.58
2023-02-07T07:26:19.764Z,51.78
2023-02-07T07:29:22.951Z,53.67
2023-02-07T07:35:49.231Z,43.92
2023-02-07T07:38:55.120Z,51.75
2023-02-07T07:41:58.304Z,51.50
2023-02-07T07:45:28.466Z,43.10
2023-02-07T07:48:31.725Z,44.05
2023-02-07T07:51:35.339Z,40.70
2023-02-07T07:54:39.743Z,41.75
2023-02-07T07:57:42.962Z,41.28
2023-02-07T08:00:47.661Z,42.63
2023-02-07T08:03:51.069Z,38.22
2023-02-07T08:06:54.235Z,34.92
2023-02-07T08:09:58.881Z,37.63
2023-02-07T08:13:02.243Z,38.65
2023-02-07T08:16:08.634Z,39.78
2023-02-07T08:19:12.113Z,33.08
2023-02-07T08:22:15.791Z,39.40
2023-02-07T08:25:20.703Z,34.00
2023-02-07T08:28:24.817Z,33.72
2023-02-07T08:31:28.267Z,36.33
2023-02-07T08:34:37.298Z,34.03
2023-02-07T08:37:40.621Z,32.38
2023-02-07T08:40:46.731Z,30.27
2023-02-07T08:43:49.859Z,31.65
2023-02-07T08:46:53.066Z,30.13
2023-02-07T08:49:56.183Z,30.55
2023-02-07T08:52:59.773Z,34.65
2023-02-07T08:56:04.629Z,34.10
2023-02-07T08:59:07.972Z,33.53
2023-02-07T09:02:12.680Z,29.75
2023-02-07T09:05:16.218Z,37.83
2023-02-07T09:08:19.423Z,26.88
2023-02-07T09:11:24.435Z,39.15
2023-02-07T09:14:27.714Z,37.90
2023-02-07T09:17:31.011Z,32.95
2023-02-07T09:20:34.196Z,34.38
2023-02-07T09:23:37.411Z,33.72
2023-02-07T09:26:42.054Z,33.40
2023-02-07T09:29:45.385Z,31.80
2023-02-07T09:32:48.822Z,33.50
2023-02-07T09:35:54.030Z,34.78
2023-02-07T09:38:58.138Z,30.05
2023-02-07T09:42:20.237Z,29.27
2023-02-07T09:45:27.928Z,34.70
2023-02-07T09:48:44.490Z,31.23
2023-02-07T09:51:48.389Z,29.58
2023-02-07T09:54:54.839Z,28.67
2023-02-07T09:58:04.314Z,29.42
2023-02-07T10:01:11.044Z,28.52
2023-02-07T10:04:31.622Z,25.67
2023-02-07T10:07:34.772Z,32.28
2023-02-07T10:10:45.791Z,30.20
2023-02-07T10:14:04.296Z,31.25
2023-02-07T10:20:39.306Z,25.08
2023-02-07T10:23:58.134Z,26.98
2023-02-07T10:30:15.706Z,27.17
2023-02-07T10:34:28.962Z,30.13
2023-02-07T10:40:45.171Z,29.98
2023-02-07T10:43:48.956Z,32.55
2023-02-07T10:46:59.317Z,27.92
2023-02-07T10:50:10.509Z,27.75
2023-02-07T10:53:55.373Z,30.38
2023-02-07T10:57:02.841Z,24.27
2023-02-07T11:00:10.798Z,23.13
2023-02-07T11:03:17.231Z,29.63
2023-02-07T11:06:28.025Z,26.77
2023-02-07T11:09:31.890Z,25.27
2023-02-07T11:12:35.073Z,25.38
2023-02-07T11:15:41.762Z,27.52
2023-02-07T11:18:47.137Z,22.08
2023-02-07T11:21:54.350Z,20.70
2023-02-07T11:25:03.880Z,22.87
2023-02-07T11:28:08.701Z,23.70
2023-02-07T11:31:15.750Z,24.45
2023-02-07T11:34:43.142Z,25.30
2023-02-07T11:37:59.013Z,26.20
2023-02-07T11:41:06.653Z,24.98
2023-02-07T11:44:17.637Z,31.30
2023-02-07T11:47:25.908Z,28.58
2023-02-07T11:50:33.661Z,34.25
2023-02-07T11:53:41.752Z,23.90
2023-02-07T11:56:50.884Z,25.20
2023-02-07T12:00:06.557Z,25.80
2023-02-07T12:03:23.594Z,24.30
2023-02-07T12:06:33.211Z,23.42
2023-02-07T12:09:44.430Z,23.23
2023-02-07T12:12:50.825Z,20.65
2023-02-07T12:15:57.561Z,24.27
2023-02-07T12:19:06.235Z,22.42
2023-02-07T12:22:18.330Z,21.10
2023-02-07T12:25:25.489Z,24.08
2023-02-07T12:28:35.717Z,23.02
2023-02-07T12:31:47.647Z,25.35
2023-02-07T12:34:57.008Z,17.95
2023-02-07T12:38:09.714Z,18.27
2023-02-07T12:41:20.921Z,21.40
2023-02-07T12:44:27.302Z,19.52
2023-02-07T12:47:43.912Z,19.88
2023-02-07T12:51:01.457Z,16.70
2023-02-07T12:54:20.862Z,16.30
2023-02-07T12:57:35.846Z,20.10
2023-02-07T13:00:52.944Z,27.10
2023-02-07T13:04:17.488Z,19.17
2023-02-07T13:07:35.184Z,24.35
2023-02-07T13:10:49.063Z,14.53
2023-02-07T13:14:06.434Z,18.63
2023-02-07T13:17:36.076Z,15.02
2023-02-07T13:20:54.415Z,21.30
2023-02-07T13:24:02.531Z,18.13
2023-02-07T13:27:13.957Z,15.82
2023-02-07T13:30:20.656Z,17.63
2023-02-07T13:33:34.806Z,25.10
2023-02-07T13:36:43.113Z,28.00
2023-02-07T13:39:56.914Z,16.80
2023-02-07T13:43:06.811Z,15.25
2023-02-07T13:46:26.870Z,16.58
2023-02-07T13:49:42.882Z,13.45
2023-02-07T13:52:55.219Z,13.05
2023-02-07T13:56:03.456Z,13.20
2023-02-07T13:59:39.651Z,18.35
2023-02-07T14:02:48.857Z,13.82
2023-02-07T14:05:52.553Z,13.55
2023-02-07T14:09:02.574Z,14.05
2023-02-07T14:12:08.837Z,14.77
2023-02-07T14:15:51.969Z,14.80
2023-02-07T14:18:57.443Z,15.63
2023-02-07T14:22:15.251Z,12.70
2023-02-07T14:25:24.482Z,17.07
2023-02-07T14:28:36.077Z,18.00
2023-02-07T14:31:48.457Z,14.02
2023-02-07T14:35:06.555Z,14.82
2023-02-07T14:38:21.865Z,12.40
2023-02-07T14:41:30.164Z,12.75
2023-02-07T14:44:36.744Z,14.88
2023-02-07T14:47:40.403Z,15.10
2023-02-07T14:50:53.662Z,15.90
2023-02-07T14:54:02.675Z,19.45
2023-02-07T14:57:18.090Z,15.15
2023-02-07T15:00:31.297Z,25.85
2023-02-07T15:03:35.098Z,16.30
2023-02-07T15:06:42.957Z,12.75
2023-02-07T15:09:46.232Z,14.43
2023-02-07T15:12:55.642Z,16.38
2023-02-07T15:16:02.416Z,13.82
2023-02-07T15:19:12.908Z,15.60
2023-02-07T15:22:26.468Z,25.83
2023-02-07T15:25:31.326Z,17.52
2023-02-07T15:28:36.768Z,20.77
2023-02-07T15:31:41.651Z,17.25
2023-02-07T15:34:46.030Z,16.38
2023-02-07T15:37:51.410Z,23.10
2023-02-07T15:40:55.598Z,20.05
2023-02-07T15:44:00.488Z,20.80
2023-02-07T15:47:06.887Z,21.02
2023-02-07T15:50:22.818Z,16.80
2023-02-07T15:53:30.737Z,24.30
2023-02-07T15:56:34.597Z,16.48
2023-02-07T15:59:38.883Z,15.82
2023-02-07T16:02:47.330Z,18.63
2023-02-07T16:06:02.761Z,26.55
2023-02-07T16:09:07.307Z,28.77
2023-02-07T16:12:33.716Z,22.02
2023-02-07T16:15:41.516Z,26.83
2023-02-07T16:18:48.100Z,25.55
2023-02-07T16:21:53.496Z,21.58
2023-02-07T16:25:01.639Z,23.63
2023-02-07T16:28:10.961Z,22.35
2023-02-07T16:34:25.544Z,45.20
2023-02-07T16:37:29.280Z,39.50
2023-02-07T16:40:32.712Z,20.55
2023-02-07T16:43:39.509Z,19.73
2023-02-07T16:46:42.737Z,15.95
2023-02-07T16:49:47.637Z,19.15
2023-02-07T16:52:52.768Z,15.43
2023-02-07T16:55:57.994Z,15.80
2023-02-07T16:59:01.215Z,19.83
2023-02-07T17:02:12.283Z,18.25
2023-02-07T17:05:17.188Z,17.13
2023-02-07T17:08:26.827Z,16.67
2023-02-07T17:11:30.906Z,21.83
2023-02-07T17:14:36.267Z,26.27
2023-02-07T17:17:39.554Z,27.75
2023-02-07T17:20:44.209Z,26.73
2023-02-07T17:23:48.919Z,22.73
2023-02-07T17:26:54.368Z,27.70
2023-02-07T17:29:57.506Z,28.48
2023-02-07T17:33:00.918Z,27.95
2023-02-07T17:36:06.170Z,30.13
2023-02-07T17:39:13.178Z,24.73
2023-02-07T17:42:18.083Z,24.08
2023-02-07T17:45:21.695Z,30.88
2023-02-07T17:48:25.323Z,25.55
2023-02-07T17:51:30.576Z,25.55
2023-02-07T17:54:33.675Z,31.23
2023-02-07T17:57:36.838Z,24.77
2023-02-07T18:00:41.527Z,25.23
2023-02-07T18:03:45.120Z,30.23
2023-02-07T18:06:49.833Z,39.25
2023-02-07T18:09:52.973Z,51.80
2023-02-07T18:12:56.664Z,42.28
2023-02-07T18:15:59.904Z,63.55
2023-02-07T18:19:03.622Z,52.45
2023-02-07T18:22:08.173Z,46.22
2023-02-07T18:25:11.611Z,49.53
2023-02-07T18:28:14.953Z,39.05
2023-02-07T18:31:24.933Z,44.72
2023-02-07T18:34:31.136Z,50.38
2023-02-07T18:37:35.702Z,44.40
2023-02-07T18:40:41.397Z,48.90
2023-02-07T18:49:12.905Z,32.60
2023-02-07T18:56:59.674Z,31.20
2023-02-07T19:00:03.642Z,34.78
2023-02-07T19:03:16.713Z,39.92
2023-02-07T19:11:46.916Z,30.83
2023-02-07T19:15:36.649Z,36.88
2023-02-07T19:18:46.136Z,36.15
2023-02-07T19:21:49.670Z,38.47
2023-02-07T19:24:52.827Z,40.10
2023-02-07T19:27:56.046Z,40.17
2023-02-07T19:31:04.063Z,35.35
2023-02-07T19:37:11.303Z,39.85
2023-02-07T19:40:14.564Z,42.63
2023-02-07T19:43:17.717Z,39.83
2023-02-07T19:46:22.131Z,35.50
2023-02-07T19:49:27.194Z,36.30
2023-02-07T19:52:33.536Z,42.28
2023-02-07T19:55:39.202Z,37.60
2023-02-07T19:58:48.097Z,56.63
2023-02-07T20:01:51.270Z,63.83
2023-02-07T20:05:17.596Z,60.05
2023-02-07T20:13:47.728Z,62.15
2023-02-07T20:16:51.352Z,64.65
2023-02-07T20:19:54.617Z,51.97
2023-02-07T20:23:06.641Z,64.00
2023-02-07T20:26:12.256Z,56.75
2023-02-07T20:29:17.154Z,59.83
2023-02-07T20:32:57.589Z,62.63
2023-02-07T20:36:08.532Z,58.10
2023-02-07T20:39:33.207Z,57.47
2023-02-07T20:42:36.872Z,57.28
2023-02-07T21:11:07.930Z,48.78
2023-02-07T21:14:14.578Z,52.53
2023-02-07T21:20:35.639Z,52.17
2023-02-07T21:23:40.207Z,51.45
2023-02-07T21:26:47.780Z,42.15
2023-02-07T21:29:51.028Z,44.03
2023-02-07T21:33:25.168Z,46.22
2023-02-07T21:36:30.236Z,50.45
2023-02-07T21:39:33.417Z,42.65
2023-02-07T21:42:38.160Z,46.58
2023-02-07T21:45:41.778Z,50.38
2023-02-07T21:48:46.834Z,49.20
2023-02-07T21:51:53.694Z,43.15
2023-02-07T21:55:02.032Z,47.15
2023-02-07T21:58:06.614Z,41.85
2023-02-07T22:01:13.665Z,48.83
2023-02-07T22:04:17.726Z,45.13
2023-02-07T22:07:20.841Z,51.13
2023-02-07T22:10:24.154Z,53.90
2023-02-07T22:13:28.778Z,50.67
2023-02-07T22:16:33.668Z,56.35
2023-02-07T22:19:36.862Z,50.88
2023-02-07T22:28:55.799Z,46.97
2023-02-07T22:34:25.094Z,64.00
2023-02-07T22:37:28.220Z,48.05
2023-02-07T22:40:31.471Z,51.17
2023-02-07T22:49:06.243Z,62.10
2023-02-07T22:52:10.710Z,55.78
2023-02-07T22:55:15.305Z,58.70
2023-02-07T22:58:18.797Z,59.47
2023-02-07T23:01:23.888Z,57.78
2023-02-07T23:04:42.584Z,63.75
2023-02-07T23:12:51.194Z,64.32
2023-02-07T23:16:06.179Z,58.58
2023-02-07T23:19:13.467Z,70.70
2023-02-07T23:28:01.836Z,64.88
2023-02-07T23:36:25.580Z,60.25
2023-02-07T23:44:08.468Z,50.47
2023-02-07T23:47:11.840Z,45.75
2023-02-07T23:50:15.274Z,57.22
2023-02-07T23:53:18.487Z,55.40
2023-02-07T23:56:23.601Z,59.50
2023-02-07T23:59:39.070Z,64.10
